North Yarmouth, Maine
Current Conditions -  °F | °C
As of 3:51 PM on Friday 24 Oct 2014 (Local Time) from KPWM Reporting Station
Overcast Overcast  
Wind Chill: 54°   Ceiling: 2700
Heat Index: 54°   Visibility: 10mi
Dew Point: 46°   Wind: 9mph
Humidity: 75%   Direction: 340°NNW
Pressure: 29.65"   Gusts: NA
Location:  43.84°N, 70.23°W
Report Text: KPWM 241951Z 34008KT 10SM OVC027 12/08 A2965 RMK AO2 SLP039 T01220078
Loading
Personal Weather Stations






























Interactive Weather Map
Tropical Storm Tracking
New forecast layout! Learn more

10-Day Weather Forecast

Advertisements
Track Severe Weather on mobile